createdAt,value
2018-08-10T00:00:23.522Z,18.74
2018-08-10T00:05:27.441Z,18.79
2018-08-10T00:10:31.084Z,18.77
2018-08-10T00:15:35.451Z,18.63
2018-08-10T00:20:39.281Z,18.53
2018-08-10T00:25:42.789Z,17.98
2018-08-10T00:30:46.419Z,17.74
2018-08-10T00:35:49.946Z,17.68
2018-08-10T00:40:54.433Z,17.71
2018-08-10T00:45:57.952Z,17.62
2018-08-10T00:51:01.728Z,17.64
2018-08-10T00:56:05.340Z,17.58
2018-08-10T01:01:08.978Z,17.49
2018-08-10T01:06:12.601Z,17.37
2018-08-10T01:11:16.863Z,17.36
2018-08-10T01:16:20.388Z,17.32
2018-08-10T01:21:23.951Z,17.29
2018-08-10T01:26:27.604Z,17.30
2018-08-10T01:31:31.276Z,17.19
2018-08-10T01:36:35.039Z,17.14
2018-08-10T01:41:38.906Z,17.15
2018-08-10T01:46:42.431Z,17.14
2018-08-10T01:51:46.122Z,17.15
2018-08-10T01:56:49.787Z,17.08
2018-08-10T02:01:54.271Z,17.03
2018-08-10T02:06:57.867Z,16.95
2018-08-10T02:12:01.393Z,16.97
2018-08-10T02:17:05.110Z,16.82
2018-08-10T02:22:08.677Z,16.72
2018-08-10T02:27:12.287Z,16.67
2018-08-10T02:32:16.509Z,16.64
2018-08-10T02:37:20.032Z,16.55
2018-08-10T02:42:23.656Z,16.48
2018-08-10T02:47:27.235Z,16.40
2018-08-10T02:52:31.023Z,16.42
2018-08-10T02:57:34.542Z,16.54
2018-08-10T03:02:38.138Z,16.63
2018-08-10T03:07:42.313Z,16.54
2018-08-10T03:12:45.892Z,16.54
2018-08-10T03:17:49.554Z,16.53
2018-08-10T03:22:53.172Z,16.46
2018-08-10T03:27:56.769Z,16.44
2018-08-10T03:33:00.631Z,16.43
2018-08-10T03:38:04.552Z,16.38
2018-08-10T03:43:08.205Z,16.29
2018-08-10T03:48:11.786Z,16.28
2018-08-10T03:53:15.801Z,16.27
2018-08-10T03:58:19.451Z,16.25
2018-08-10T04:03:23.177Z,16.24
2018-08-10T04:08:26.704Z,16.31
2018-08-10T04:13:30.934Z,16.18
2018-08-10T04:18:34.762Z,16.17
2018-08-10T04:23:38.511Z,16.01
2018-08-10T04:28:42.027Z,15.92
2018-08-10T04:33:45.631Z,15.83
2018-08-10T04:38:56.448Z,15.73
2018-08-10T04:44:00.142Z,15.68
2018-08-10T04:49:04.373Z,15.63
2018-08-10T04:54:07.856Z,15.56
2018-08-10T04:59:11.437Z,15.50
2018-08-10T05:04:15.397Z,15.88
2018-08-10T05:09:18.981Z,16.27
2018-08-10T05:14:22.612Z,15.81
2018-08-10T05:19:26.205Z,15.71
2018-08-10T05:24:29.834Z,15.70
2018-08-10T05:29:33.498Z,15.85
2018-08-10T05:34:36.993Z,15.88
2018-08-10T05:39:40.615Z,16.02
2018-08-10T05:44:44.135Z,16.03
2018-08-10T05:49:47.884Z,16.06
2018-08-10T05:54:51.430Z,16.19
2018-08-10T05:59:55.026Z,16.28
2018-08-10T06:04:58.622Z,16.38
2018-08-10T06:10:02.350Z,16.52
2018-08-10T06:15:07.393Z,16.68
2018-08-10T06:20:11.943Z,16.60
2018-08-10T06:25:16.237Z,16.83
2018-08-10T06:30:29.415Z,16.87
2018-08-10T06:35:32.988Z,17.23
2018-08-10T06:40:36.778Z,17.32
2018-08-10T06:45:40.313Z,17.37
2018-08-10T06:50:44.142Z,17.55
2018-08-10T06:55:47.678Z,17.41
2018-08-10T07:00:51.224Z,17.52
2018-08-10T07:05:54.744Z,17.62
2018-08-10T07:11:35.982Z,17.76
2018-08-10T07:16:39.597Z,18.07
2018-08-10T07:21:43.172Z,18.50
2018-08-10T07:26:46.726Z,18.19
2018-08-10T07:31:50.586Z,18.56
2018-08-10T07:36:54.195Z,18.67
2018-08-10T07:41:58.271Z,18.96
2018-08-10T07:47:01.768Z,19.05
2018-08-10T07:52:05.609Z,19.17
2018-08-10T07:57:09.327Z,18.78
2018-08-10T08:02:13.323Z,18.91
2018-08-10T08:07:16.875Z,18.96
2018-08-10T08:12:20.510Z,19.16
2018-08-10T08:17:24.073Z,19.63
2018-08-10T08:22:27.776Z,20.10
2018-08-10T08:27:31.411Z,20.61
2018-08-10T08:32:35.645Z,20.66
2018-08-10T08:37:39.408Z,20.95
2018-08-10T08:42:44.696Z,20.44
2018-08-10T08:47:50.914Z,20.50
2018-08-10T08:52:54.567Z,20.43
2018-08-10T08:57:58.158Z,20.28
2018-08-10T09:03:01.954Z,20.10
2018-08-10T09:08:07.106Z,20.17
2018-08-10T09:13:10.736Z,20.15
2018-08-10T09:18:14.634Z,20.36
2018-08-10T09:23:18.579Z,20.54
2018-08-10T09:28:22.174Z,20.95
2018-08-10T09:33:25.856Z,21.07
2018-08-10T09:38:29.602Z,20.85
2018-08-10T09:43:34.582Z,20.59
2018-08-10T09:48:38.174Z,20.73
2018-08-10T09:53:42.048Z,21.04
2018-08-10T09:58:45.794Z,20.72
2018-08-10T10:03:49.718Z,20.74
2018-08-10T10:08:53.417Z,21.54
2018-08-10T10:13:56.997Z,22.10
2018-08-10T10:19:00.549Z,22.04
2018-08-10T10:24:04.142Z,22.55
2018-08-10T10:29:07.736Z,22.62
2018-08-10T10:34:11.519Z,21.71
2018-08-10T10:39:15.255Z,22.07
2018-08-10T10:44:18.816Z,22.64
2018-08-10T10:49:22.503Z,22.74
2018-08-10T10:54:26.248Z,22.62
2018-08-10T10:59:29.872Z,22.52
2018-08-10T11:04:33.506Z,22.80
2018-08-10T11:09:37.292Z,22.50
2018-08-10T11:14:40.882Z,23.21
2018-08-10T11:19:44.536Z,23.64
2018-08-10T11:24:48.184Z,23.41
2018-08-10T11:29:51.745Z,23.16
2018-08-10T11:34:55.411Z,23.17
2018-08-10T11:39:58.945Z,22.89
2018-08-10T11:45:02.941Z,22.54
2018-08-10T11:50:06.888Z,22.74
2018-08-10T11:55:12.495Z,22.99
2018-08-10T12:00:17.771Z,23.04
2018-08-10T12:05:21.386Z,23.24
2018-08-10T12:10:24.873Z,23.21
2018-08-10T12:15:28.508Z,23.47
2018-08-10T12:20:32.094Z,23.45
2018-08-10T12:25:35.678Z,23.71
2018-08-10T12:30:40.091Z,23.96
2018-08-10T12:35:44.722Z,23.90
2018-08-10T12:40:48.189Z,23.58
2018-08-10T12:45:51.891Z,23.44
2018-08-10T12:50:55.517Z,23.71
2018-08-10T12:55:59.135Z,24.10
2018-08-10T13:01:08.558Z,24.15
2018-08-10T13:06:12.325Z,24.22
2018-08-10T13:11:15.966Z,24.07
2018-08-10T13:16:19.977Z,24.12
2018-08-10T13:21:23.480Z,24.25
2018-08-10T13:26:27.711Z,23.79
2018-08-10T13:31:31.336Z,24.01
2018-08-10T13:36:34.992Z,24.11
2018-08-10T13:41:38.963Z,24.53
2018-08-10T13:46:42.634Z,24.40
2018-08-10T13:51:46.291Z,23.86
2018-08-10T13:56:50.038Z,24.43
2018-08-10T14:01:54.528Z,23.94
2018-08-10T14:06:58.358Z,23.87
2018-08-10T14:12:02.668Z,23.87
2018-08-10T14:17:06.266Z,24.02
2018-08-10T14:22:09.990Z,24.23
2018-08-10T14:27:13.608Z,24.47
2018-08-10T14:32:17.484Z,24.54
2018-08-10T14:37:21.082Z,24.49
2018-08-10T14:42:25.312Z,23.92
2018-08-10T14:47:29.133Z,23.76
2018-08-10T14:52:32.762Z,24.17
2018-08-10T14:57:36.477Z,24.61
2018-08-10T15:02:40.223Z,24.17
2018-08-10T15:07:44.254Z,23.79
2018-08-10T15:12:48.551Z,24.35
2018-08-10T15:17:52.607Z,24.16
2018-08-10T15:22:56.138Z,24.46
2018-08-10T15:27:59.736Z,24.46
2018-08-10T15:33:03.326Z,24.56
2018-08-10T15:38:07.253Z,24.33
2018-08-10T15:43:10.807Z,24.00
2018-08-10T15:48:14.705Z,23.90
2018-08-10T15:53:18.231Z,24.32
2018-08-10T15:58:21.902Z,24.05
2018-08-10T16:03:25.527Z,23.92
2018-08-10T16:08:29.183Z,23.98
2018-08-10T16:13:32.767Z,23.84
2018-08-10T16:18:37.305Z,23.98
2018-08-10T16:23:40.930Z,23.93
2018-08-10T16:28:44.520Z,24.07
2018-08-10T16:33:48.232Z,23.98
2018-08-10T16:38:51.863Z,24.01
2018-08-10T16:44:00.194Z,24.49
2018-08-10T16:49:04.763Z,24.83
2018-08-10T16:54:08.519Z,24.68
2018-08-10T16:59:12.603Z,24.47
2018-08-10T17:04:16.189Z,24.63
2018-08-10T17:09:20.702Z,25.34
2018-08-10T17:14:24.371Z,26.65
2018-08-10T17:19:36.212Z,27.35
2018-08-10T17:24:39.895Z,28.02
2018-08-10T17:29:43.476Z,28.26
2018-08-10T17:34:47.183Z,27.86
2018-08-10T17:39:50.746Z,26.77
2018-08-10T17:44:54.272Z,25.59
2018-08-10T17:49:58.038Z,24.65
2018-08-10T17:55:01.644Z,24.11
2018-08-10T18:00:06.906Z,23.71
2018-08-10T18:05:13.251Z,23.35
2018-08-10T18:10:18.371Z,23.03
2018-08-10T18:15:21.970Z,22.84
2018-08-10T18:20:26.207Z,22.73
2018-08-10T18:25:30.126Z,22.69
2018-08-10T18:30:33.716Z,22.56
2018-08-10T18:35:37.611Z,22.37
2018-08-10T18:40:41.250Z,22.04
2018-08-10T18:45:45.074Z,21.71
2018-08-10T18:50:49.044Z,21.43
2018-08-10T18:55:53.682Z,21.24
2018-08-10T19:00:57.449Z,21.00
2018-08-10T19:06:01.172Z,20.78
2018-08-10T19:11:05.720Z,20.55
2018-08-10T19:16:09.300Z,20.35
2018-08-10T19:21:13.084Z,20.14
2018-08-10T19:26:16.614Z,19.86
2018-08-10T19:31:20.348Z,19.70
2018-08-10T19:36:23.990Z,19.60
2018-08-10T19:41:27.589Z,19.52
2018-08-10T19:46:31.530Z,19.44
2018-08-10T19:51:35.355Z,19.37
2018-08-10T19:56:38.970Z,19.23
2018-08-10T20:01:46.654Z,19.12
2018-08-10T20:06:50.212Z,19.04
2018-08-10T20:11:54.104Z,18.98
2018-08-10T20:16:57.611Z,18.83
2018-08-10T20:22:01.255Z,18.73
2018-08-10T20:27:05.023Z,18.62
2018-08-10T20:32:08.827Z,18.46
2018-08-10T20:37:12.501Z,18.33
2018-08-10T20:42:16.169Z,18.28
2018-08-10T20:47:20.297Z,18.17
2018-08-10T20:52:23.885Z,18.06
2018-08-10T20:57:27.471Z,17.97
2018-08-10T21:02:31.568Z,17.88
2018-08-10T21:07:35.255Z,17.85
2018-08-10T21:12:39.348Z,17.78
2018-08-10T21:17:43.812Z,17.75
2018-08-10T21:22:47.583Z,17.66
2018-08-10T21:27:51.219Z,17.49
2018-08-10T21:32:54.811Z,17.46
2018-08-10T21:37:58.345Z,17.16
2018-08-10T21:43:01.887Z,17.15
2018-08-10T21:48:05.527Z,17.26
2018-08-10T21:53:10.255Z,17.22
2018-08-10T21:58:13.995Z,17.21
2018-08-10T22:03:17.925Z,17.19
2018-08-10T22:08:22.457Z,17.14
2018-08-10T22:13:31.471Z,17.13
2018-08-10T22:18:40.283Z,17.13
2018-08-10T22:23:43.861Z,17.15
2018-08-10T22:28:47.442Z,17.14
2018-08-10T22:33:51.384Z,17.10
2018-08-10T22:38:57.663Z,17.02
2018-08-10T22:44:01.415Z,17.01
2018-08-10T22:49:04.999Z,16.98
2018-08-10T22:54:09.027Z,16.93
2018-08-10T22:59:12.700Z,16.92
2018-08-10T23:04:16.461Z,16.86
2018-08-10T23:09:20.111Z,16.82
2018-08-10T23:14:23.732Z,16.74
2018-08-10T23:19:27.311Z,16.81
2018-08-10T23:24:30.917Z,16.83
2018-08-10T23:29:34.549Z,16.73
2018-08-10T23:34:38.144Z,16.78
2018-08-10T23:39:41.928Z,16.81
2018-08-10T23:44:46.255Z,16.88
2018-08-10T23:49:50.024Z,16.97
2018-08-10T23:54:53.666Z,16.98
2018-08-10T23:59:57.646Z,16.95
